createdAt,value
2017-07-29T00:00:24.315Z,22.31
2017-07-29T00:01:33.641Z,22.33
2017-07-29T00:02:43.890Z,22.39
2017-07-29T00:03:53.826Z,22.43
2017-07-29T00:05:03.439Z,22.43
2017-07-29T00:06:13.076Z,22.46
2017-07-29T00:07:23.307Z,22.61
2017-07-29T00:08:33.230Z,22.55
2017-07-29T00:09:43.466Z,22.55
2017-07-29T00:10:53.077Z,22.54
2017-07-29T00:12:02.699Z,22.58
2017-07-29T00:13:12.932Z,22.55
2017-07-29T00:14:22.860Z,22.61
2017-07-29T00:15:32.780Z,22.55
2017-07-29T00:16:43.003Z,22.57
2017-07-29T00:17:52.615Z,22.64
2017-07-29T00:19:02.859Z,22.55
2017-07-29T00:20:13.087Z,22.67
2017-07-29T00:21:23.319Z,22.67
2017-07-29T00:22:33.257Z,22.64
2017-07-29T00:23:42.888Z,22.55
2017-07-29T00:24:53.112Z,22.6
2017-07-29T00:26:03.335Z,22.61
2017-07-29T00:27:12.964Z,22.54
2017-07-29T00:28:23.183Z,22.57
2017-07-29T00:29:32.795Z,22.67
2017-07-29T00:30:43.057Z,22.62
2017-07-29T00:31:52.977Z,22.65
2017-07-29T00:33:02.581Z,22.61
2017-07-29T00:34:12.511Z,22.68
2017-07-29T00:35:22.734Z,22.57
2017-07-29T00:36:32.651Z,22.58
2017-07-29T00:37:42.273Z,22.64
2017-07-29T00:38:52.183Z,22.7
2017-07-29T00:40:01.789Z,22.72
2017-07-29T00:41:11.422Z,22.7
2017-07-29T00:42:21.037Z,22.77
2017-07-29T00:43:31.289Z,22.82
2017-07-29T00:44:41.226Z,22.76
2017-07-29T00:45:51.146Z,22.83
2017-07-29T00:47:01.366Z,22.82
2017-07-29T00:48:10.678Z,22.85
2017-07-29T00:49:20.897Z,22.95
2017-07-29T00:50:30.537Z,22.92
2017-07-29T00:54:12.817Z,23.01
2017-07-29T00:57:54.792Z,23.2
2017-07-29T01:01:37.378Z,23.19
2017-07-29T01:02:47.020Z,23.23
2017-07-29T01:06:30.507Z,23.22
2017-07-29T01:07:40.432Z,23.32
2017-07-29T01:13:55.695Z,23.35
2017-07-29T01:17:37.983Z,23.35
2017-07-29T01:21:20.910Z,23.46
2017-07-29T01:22:30.521Z,23.42
2017-07-29T01:26:13.131Z,23.51
2017-07-29T01:27:23.366Z,23.51
2017-07-29T01:28:33.296Z,23.57
2017-07-29T01:29:42.906Z,23.53
2017-07-29T01:30:52.843Z,23.51
2017-07-29T01:32:02.765Z,23.54
2017-07-29T01:33:12.733Z,23.6
2017-07-29T01:34:22.357Z,23.54
2017-07-29T01:35:31.968Z,23.51
2017-07-29T01:36:42.189Z,23.55
2017-07-29T01:44:13.356Z,23.54
2017-07-29T01:45:22.958Z,23.58
2017-07-29T01:46:32.889Z,23.58
2017-07-29T01:47:42.513Z,23.61
2017-07-29T01:48:52.437Z,23.58
2017-07-29T01:50:02.658Z,23.6
2017-07-29T01:51:12.590Z,23.61
2017-07-29T01:52:22.533Z,23.61
2017-07-29T01:53:32.761Z,23.63
2017-07-29T01:54:42.699Z,23.61
2017-07-29T01:55:52.619Z,23.6
2017-07-29T01:57:02.579Z,23.69
2017-07-29T01:58:12.210Z,23.6
2017-07-29T01:59:22.440Z,23.65
2017-07-29T02:00:32.343Z,23.63
2017-07-29T02:01:42.567Z,23.63
2017-07-29T02:02:52.790Z,23.65
2017-07-29T02:04:03.021Z,23.63
2017-07-29T02:05:12.631Z,23.55
2017-07-29T02:06:22.857Z,23.69
2017-07-29T02:07:32.491Z,23.69
2017-07-29T02:08:42.099Z,23.66
2017-07-29T02:09:52.319Z,23.6
2017-07-29T02:11:02.556Z,23.57
2017-07-29T02:12:11.884Z,23.55
2017-07-29T02:13:21.800Z,23.66
2017-07-29T02:14:31.416Z,23.66
2017-07-29T02:15:41.342Z,23.65
2017-07-29T02:16:51.569Z,23.68
2017-07-29T02:18:01.787Z,23.7
2017-07-29T02:19:11.763Z,23.76
2017-07-29T02:20:21.704Z,23.68
2017-07-29T02:21:31.635Z,23.75
2017-07-29T02:22:41.907Z,23.73
2017-07-29T02:23:51.835Z,23.73
2017-07-29T02:25:01.781Z,23.8
2017-07-29T02:26:11.684Z,23.8
2017-07-29T02:27:21.947Z,23.75
2017-07-29T02:28:32.197Z,23.8
2017-07-29T02:29:42.136Z,23.83
2017-07-29T02:30:52.078Z,23.9
2017-07-29T02:32:01.396Z,23.88
2017-07-29T02:33:11.033Z,23.88
2017-07-29T02:34:20.955Z,23.87
2017-07-29T02:35:30.569Z,23.84
2017-07-29T02:36:40.803Z,23.85
2017-07-29T02:37:50.721Z,23.91
2017-07-29T02:39:00.631Z,23.93
2017-07-29T02:40:10.546Z,23.87
2017-07-29T02:41:20.820Z,23.94
2017-07-29T02:42:30.734Z,23.98
2017-07-29T02:43:40.966Z,23.95
2017-07-29T02:44:51.201Z,23.88
2017-07-29T02:46:01.130Z,23.93
2017-07-29T02:47:11.368Z,23.9
2017-07-29T02:48:21.299Z,23.88
2017-07-29T02:49:31.217Z,23.91
2017-07-29T02:50:41.152Z,23.87
2017-07-29T02:51:51.076Z,23.91
2017-07-29T02:53:01.318Z,23.87
2017-07-29T02:54:11.258Z,23.98
2017-07-29T02:55:20.902Z,23.91
2017-07-29T02:56:30.524Z,23.84
2017-07-29T02:57:40.449Z,23.87
2017-07-29T02:58:50.694Z,23.83
2017-07-29T03:00:00.306Z,23.84
2017-07-29T03:01:09.635Z,23.88
2017-07-29T03:02:18.937Z,23.87
2017-07-29T03:03:28.848Z,23.79
2017-07-29T03:04:38.167Z,23.79
2017-07-29T03:05:47.787Z,23.9
2017-07-29T03:06:57.741Z,23.87
2017-07-29T03:08:07.973Z,23.8
2017-07-29T03:09:17.601Z,23.75
2017-07-29T03:10:27.222Z,23.78
2017-07-29T03:11:37.448Z,23.78
2017-07-29T03:12:47.385Z,23.79
2017-07-29T03:13:57.308Z,23.76
2017-07-29T03:15:06.933Z,23.76
2017-07-29T03:16:16.873Z,23.8
2017-07-29T03:17:26.557Z,23.75
2017-07-29T03:18:36.493Z,23.78
2017-07-29T03:19:46.749Z,23.75
2017-07-29T03:20:56.979Z,23.73
2017-07-29T03:22:06.924Z,23.69
2017-07-29T03:23:17.162Z,23.68
2017-07-29T03:24:27.386Z,23.65
2017-07-29T03:25:37.618Z,23.7
2017-07-29T03:26:47.540Z,23.7
2017-07-29T03:27:57.163Z,23.69
2017-07-29T03:29:06.482Z,23.66
2017-07-29T03:30:16.725Z,23.61
2017-07-29T03:31:26.649Z,23.63
2017-07-29T03:32:36.579Z,23.69
2017-07-29T03:33:46.799Z,23.68
2017-07-29T03:34:56.730Z,23.75
2017-07-29T03:36:06.340Z,23.68
2017-07-29T03:37:16.260Z,23.68
2017-07-29T03:38:26.501Z,23.79
2017-07-29T03:39:36.719Z,23.68
2017-07-29T03:40:46.332Z,23.73
2017-07-29T03:41:56.557Z,23.7
2017-07-29T03:43:06.806Z,23.87
2017-07-29T03:44:16.405Z,23.75
2017-07-29T03:45:26.313Z,23.8
2017-07-29T03:46:36.227Z,23.69
2017-07-29T03:47:46.487Z,23.8
2017-07-29T03:48:56.713Z,23.72
2017-07-29T03:50:06.652Z,23.79
2017-07-29T03:51:16.581Z,23.84
2017-07-29T03:52:26.506Z,23.68
2017-07-29T03:53:36.127Z,23.83
2017-07-29T03:54:46.358Z,23.7
2017-07-29T03:55:56.277Z,23.72
2017-07-29T03:57:05.890Z,23.8
2017-07-29T03:58:15.813Z,23.78
2017-07-29T03:59:25.727Z,23.73
2017-07-29T04:00:35.337Z,23.83
2017-07-29T04:01:45.571Z,23.72
2017-07-29T04:02:55.488Z,23.87
2017-07-29T04:04:04.791Z,23.75
2017-07-29T04:05:15.023Z,23.79
2017-07-29T04:06:24.637Z,23.78
2017-07-29T04:07:34.861Z,23.69
2017-07-29T04:08:44.787Z,23.8
2017-07-29T04:09:54.706Z,23.79
2017-07-29T04:11:04.938Z,23.75
2017-07-29T04:12:14.863Z,23.78
2017-07-29T04:13:24.795Z,23.85
2017-07-29T04:14:34.722Z,23.78
2017-07-29T04:15:44.695Z,23.85
2017-07-29T04:16:54.920Z,23.8
2017-07-29T04:18:04.533Z,23.72
2017-07-29T04:19:14.494Z,23.85
2017-07-29T04:20:24.412Z,23.93
2017-07-29T04:21:34.333Z,23.79
2017-07-29T04:22:43.356Z,23.78
2017-07-29T04:23:53.583Z,23.8
2017-07-29T04:25:03.807Z,23.83
2017-07-29T04:26:14.021Z,23.8
2017-07-29T04:27:24.249Z,23.88
2017-07-29T04:28:34.487Z,23.84
2017-07-29T04:29:44.092Z,23.85
2017-07-29T04:30:54.334Z,23.85
2017-07-29T04:32:04.268Z,23.88
2017-07-29T04:33:14.047Z,23.83
2017-07-29T04:34:24.317Z,23.87
2017-07-29T04:35:34.233Z,23.8
2017-07-29T04:36:44.146Z,23.79
2017-07-29T04:37:53.774Z,23.84
2017-07-29T04:39:03.997Z,23.9
2017-07-29T04:40:13.923Z,23.79
2017-07-29T04:41:23.881Z,23.87
2017-07-29T04:42:34.122Z,23.78
2017-07-29T04:43:44.038Z,23.76
2017-07-29T04:44:53.959Z,23.87
2017-07-29T04:46:03.583Z,23.87
2017-07-29T04:47:13.208Z,23.85
2017-07-29T04:48:23.129Z,23.88
2017-07-29T04:49:33.356Z,23.93
2017-07-29T04:50:43.272Z,23.94
2017-07-29T04:51:52.574Z,23.8
2017-07-29T04:53:02.186Z,23.85
2017-07-29T04:54:12.424Z,23.84
2017-07-29T04:55:22.028Z,23.83
2017-07-29T04:56:32.253Z,23.9
2017-07-29T04:57:42.491Z,23.95
2017-07-29T04:58:52.742Z,23.95
2017-07-29T05:00:02.985Z,23.85
2017-07-29T05:01:13.207Z,23.85
2017-07-29T05:02:22.816Z,23.91
2017-07-29T05:03:32.432Z,23.93
2017-07-29T05:04:42.352Z,23.9
2017-07-29T05:05:52.269Z,23.79
2017-07-29T05:07:01.882Z,23.88
2017-07-29T05:08:11.834Z,23.87
2017-07-29T05:09:21.461Z,23.93
2017-07-29T05:10:31.083Z,23.93
2017-07-29T05:11:41.000Z,23.93
2017-07-29T05:12:50.930Z,23.91
2017-07-29T05:14:01.158Z,23.88
2017-07-29T05:15:10.769Z,23.91
2017-07-29T05:16:20.697Z,23.98
2017-07-29T05:17:30.614Z,23.95
2017-07-29T05:18:40.231Z,23.91
2017-07-29T05:19:50.447Z,23.91
2017-07-29T05:21:00.369Z,23.93
2017-07-29T05:22:09.996Z,24.03
2017-07-29T05:23:19.915Z,24.06
2017-07-29T05:24:29.828Z,23.93
2017-07-29T05:25:39.746Z,24.03
2017-07-29T05:26:49.967Z,24.02
2017-07-29T05:27:59.572Z,24.03
2017-07-29T05:29:09.501Z,24.02
2017-07-29T05:30:19.739Z,24.03
2017-07-29T05:31:29.661Z,23.97
2017-07-29T05:32:38.958Z,24.06
2017-07-29T05:33:48.585Z,24.05
2017-07-29T05:34:58.502Z,24.05
2017-07-29T05:36:08.116Z,24.02
2017-07-29T05:37:18.352Z,24.08
2017-07-29T05:38:28.282Z,24.13
2017-07-29T05:39:38.533Z,24.12
2017-07-29T05:40:48.466Z,24.12
2017-07-29T05:41:58.389Z,24.08
2017-07-29T05:43:08.304Z,24.2
2017-07-29T05:44:17.918Z,24.27
2017-07-29T05:45:27.583Z,24.21
2017-07-29T05:46:37.838Z,24.16
2017-07-29T05:47:48.057Z,24.08
2017-07-29T05:48:57.985Z,24.3
2017-07-29T05:50:07.649Z,24.3
2017-07-29T05:51:17.872Z,24.42
2017-07-29T05:52:27.779Z,24.42
2017-07-29T05:53:38.012Z,24.42
2017-07-29T05:54:47.926Z,24.42
2017-07-29T05:55:57.592Z,24.45
2017-07-29T05:57:07.233Z,24.5
2017-07-29T05:58:16.852Z,24.49
2017-07-29T05:59:27.091Z,24.57
2017-07-29T06:00:37.317Z,24.47
2017-07-29T06:01:46.928Z,24.52
2017-07-29T06:02:57.172Z,24.46
2017-07-29T06:04:07.106Z,24.57
2017-07-29T06:05:17.336Z,24.55
2017-07-29T06:06:27.556Z,24.62
2017-07-29T06:07:37.460Z,24.62
2017-07-29T06:08:47.707Z,24.68
2017-07-29T06:09:57.938Z,24.65
2017-07-29T06:11:07.557Z,24.69
2017-07-29T06:12:17.178Z,24.73
2017-07-29T06:13:27.106Z,24.83
2017-07-29T06:14:37.335Z,24.87
2017-07-29T06:15:47.568Z,24.9
2017-07-29T06:16:57.482Z,24.96
2017-07-29T06:18:07.090Z,24.93
2017-07-29T06:19:17.034Z,24.9
2017-07-29T06:20:27.254Z,24.93
2017-07-29T06:21:37.177Z,24.91
2017-07-29T06:22:46.786Z,24.77
2017-07-29T06:23:57.008Z,24.9
2017-07-29T06:25:07.226Z,24.78
2017-07-29T06:26:17.466Z,24.81
2017-07-29T06:27:27.405Z,24.88
2017-07-29T06:28:37.332Z,24.81
2017-07-29T06:29:47.255Z,24.76
2017-07-29T06:30:57.494Z,24.9
2017-07-29T06:32:07.111Z,24.8
2017-07-29T06:33:17.361Z,24.81
2017-07-29T06:34:27.590Z,24.78
2017-07-29T06:35:37.519Z,24.95
2017-07-29T06:36:47.126Z,24.95
2017-07-29T06:37:56.745Z,25
2017-07-29T06:39:06.372Z,24.95
2017-07-29T06:40:16.585Z,24.99
2017-07-29T06:41:26.514Z,25.06
2017-07-29T06:42:36.121Z,25.06
2017-07-29T06:43:46.063Z,25.14
2017-07-29T06:44:55.974Z,25.18
2017-07-29T06:46:05.894Z,25.24
2017-07-29T06:47:15.837Z,25.2
2017-07-29T06:48:25.768Z,25.27
2017-07-29T06:49:35.990Z,25.21
2017-07-29T06:50:45.634Z,25.21
2017-07-29T06:51:55.573Z,25.17
2017-07-29T06:53:05.807Z,25.15
2017-07-29T06:54:14.810Z,25.17
2017-07-29T06:55:24.747Z,25.1
2017-07-29T06:56:34.359Z,25.14
2017-07-29T06:57:43.989Z,25.09
2017-07-29T06:58:53.914Z,25.06
2017-07-29T07:00:03.831Z,25.08
2017-07-29T07:01:13.453Z,25.1
2017-07-29T07:02:23.675Z,25.06
2017-07-29T07:03:33.604Z,24.99
2017-07-29T07:04:42.915Z,25.05
2017-07-29T07:05:52.858Z,25.03
2017-07-29T07:07:02.785Z,25.03
2017-07-29T07:08:12.410Z,25.13
2017-07-29T07:09:22.329Z,25.08
2017-07-29T07:10:32.564Z,25.23
2017-07-29T07:11:42.481Z,25.51
2017-07-29T07:12:52.710Z,25.88
2017-07-29T07:14:02.634Z,26.33
2017-07-29T07:15:12.544Z,26.82
2017-07-29T07:16:22.181Z,27.22
2017-07-29T07:17:32.403Z,27.62
2017-07-29T07:18:42.015Z,27.96
2017-07-29T07:19:51.936Z,28.36
2017-07-29T07:21:02.176Z,28.68
2017-07-29T07:22:11.495Z,29.06
2017-07-29T07:23:21.131Z,29.24
2017-07-29T07:24:31.043Z,29.6
2017-07-29T07:25:40.965Z,29.82
2017-07-29T07:26:50.592Z,30.01
2017-07-29T07:28:00.531Z,30.22
2017-07-29T07:29:10.227Z,30.51
2017-07-29T07:30:20.493Z,30.75
2017-07-29T07:31:30.432Z,30.88
2017-07-29T07:32:40.657Z,31.07
2017-07-29T07:33:51.171Z,31.32
2017-07-29T07:35:01.416Z,31.56
2017-07-29T07:36:12.675Z,31.69
2017-07-29T07:37:22.285Z,31.91
2017-07-29T07:38:32.214Z,32.15
2017-07-29T07:39:42.125Z,32.44
2017-07-29T07:40:52.345Z,32.59
2017-07-29T07:42:02.577Z,32.75
2017-07-29T07:43:12.806Z,33.03
2017-07-29T07:44:23.028Z,33.19
2017-07-29T07:45:33.251Z,33.32
2017-07-29T07:46:43.491Z,33.51
2017-07-29T07:47:54.093Z,33.65
2017-07-29T07:49:04.010Z,33.82
2017-07-29T07:50:14.237Z,33.86
2017-07-29T07:51:24.451Z,34.09
2017-07-29T07:52:34.687Z,34.24
2017-07-29T07:53:44.629Z,34.32
2017-07-29T07:54:54.235Z,34.53
2017-07-29T07:56:04.480Z,34.61
2017-07-29T07:57:14.742Z,34.77
2017-07-29T07:58:24.980Z,34.92
2017-07-29T07:59:35.205Z,35.14
2017-07-29T08:00:45.148Z,35.15
2017-07-29T08:01:54.761Z,35.33
2017-07-29T08:03:04.978Z,35.16
2017-07-29T08:04:14.585Z,34.81
2017-07-29T08:05:24.191Z,34.32
2017-07-29T08:06:34.437Z,33.79
2017-07-29T08:07:44.361Z,33.32
2017-07-29T08:08:54.355Z,32.93
2017-07-29T08:10:05.525Z,32.72
2017-07-29T08:11:15.144Z,32.74
2017-07-29T08:12:25.382Z,32.77
2017-07-29T08:13:35.313Z,32.51
2017-07-29T08:14:44.941Z,32.11
2017-07-29T08:15:55.166Z,31.69
2017-07-29T08:17:04.776Z,31.38
2017-07-29T08:18:14.698Z,31.06
2017-07-29T08:19:24.929Z,30.86
2017-07-29T08:20:34.557Z,30.61
2017-07-29T08:21:44.801Z,30.38
2017-07-29T08:22:54.717Z,30.2
2017-07-29T08:24:04.634Z,29.9
2017-07-29T08:25:14.858Z,29.67
2017-07-29T08:26:24.782Z,29.52
2017-07-29T08:27:35.091Z,29.37
2017-07-29T08:28:44.089Z,29.23
2017-07-29T08:29:54.007Z,29.09
2017-07-29T08:31:03.921Z,28.96
2017-07-29T08:32:13.528Z,28.88
2017-07-29T08:33:22.832Z,28.67
2017-07-29T08:34:32.745Z,28.56
2017-07-29T08:35:42.691Z,28.44
2017-07-29T08:36:52.025Z,28.51
2017-07-29T08:38:01.324Z,28.4
2017-07-29T08:39:11.256Z,28.48
2017-07-29T08:40:21.475Z,28.55
2017-07-29T08:41:31.717Z,28.46
2017-07-29T08:42:41.929Z,28.49
2017-07-29T08:43:51.541Z,28.4
2017-07-29T08:45:01.473Z,28.3
2017-07-29T08:46:10.764Z,28.21
2017-07-29T08:47:20.099Z,28.09
2017-07-29T08:48:30.335Z,28.11
2017-07-29T08:49:40.549Z,28.03
2017-07-29T08:50:50.177Z,27.97
2017-07-29T08:51:59.781Z,27.92
2017-07-29T08:53:09.400Z,27.94
2017-07-29T08:54:18.717Z,27.9
2017-07-29T08:55:28.948Z,27.88
2017-07-29T08:56:39.168Z,28.09
2017-07-29T08:57:49.390Z,28.31
2017-07-29T08:58:59.373Z,28.34
2017-07-29T09:00:08.996Z,28.39
2017-07-29T09:01:18.293Z,28.44
2017-07-29T09:02:27.909Z,28.46
2017-07-29T09:03:37.831Z,28.36
2017-07-29T09:04:47.767Z,28.39
2017-07-29T09:05:57.986Z,28.33
2017-07-29T09:07:07.597Z,28.25
2017-07-29T09:08:17.522Z,28.22
2017-07-29T09:09:27.439Z,28.15
2017-07-29T09:10:37.361Z,28.14
2017-07-29T09:11:47.585Z,28.09
2017-07-29T09:12:57.197Z,28.03
2017-07-29T09:14:07.490Z,27.96
2017-07-29T09:15:17.122Z,27.92
2017-07-29T09:16:27.349Z,27.87
2017-07-29T09:17:37.259Z,27.79
2017-07-29T09:18:47.569Z,27.7
2017-07-29T09:19:57.605Z,27.69
2017-07-29T09:21:08.053Z,27.62
2017-07-29T09:22:18.989Z,27.51
2017-07-29T09:23:29.510Z,27.51
2017-07-29T09:24:39.162Z,27.49
2017-07-29T09:25:49.387Z,27.39
2017-07-29T09:26:59.005Z,27.31
2017-07-29T09:28:09.221Z,27.39
2017-07-29T09:29:19.144Z,27.34
2017-07-29T09:30:29.374Z,27.27
2017-07-29T09:31:39.025Z,27.24
2017-07-29T09:32:48.947Z,27.14
2017-07-29T09:33:58.863Z,27.18
2017-07-29T09:35:08.783Z,27.17
2017-07-29T09:36:18.384Z,27.1
2017-07-29T09:37:28.005Z,27.06
2017-07-29T09:38:37.945Z,27.03
2017-07-29T09:39:48.184Z,26.95
2017-07-29T09:40:57.788Z,26.91
2017-07-29T09:42:07.706Z,26.85
2017-07-29T09:43:17.628Z,26.82
2017-07-29T09:44:27.876Z,26.84
2017-07-29T09:45:37.185Z,26.72
2017-07-29T09:46:47.421Z,26.6
2017-07-29T09:47:57.032Z,26.58
2017-07-29T09:49:06.951Z,26.57
2017-07-29T09:50:16.877Z,26.52
2017-07-29T09:51:26.800Z,26.48
2017-07-29T09:52:36.410Z,26.43
2017-07-29T09:53:46.320Z,26.39
2017-07-29T09:54:56.548Z,26.43
2017-07-29T09:56:06.504Z,26.43
2017-07-29T09:57:16.425Z,26.4
2017-07-29T09:58:26.346Z,26.45
2017-07-29T09:59:36.572Z,26.35
2017-07-29T10:00:46.506Z,26.33
2017-07-29T10:01:56.739Z,26.35
2017-07-29T10:03:06.966Z,26.35
2017-07-29T10:04:16.270Z,26.26
2017-07-29T10:05:26.523Z,26.17
2017-07-29T10:06:36.766Z,26.1
2017-07-29T10:07:47.000Z,26.09
2017-07-29T10:08:56.962Z,26.15
2017-07-29T10:10:07.203Z,26.13
2017-07-29T10:11:16.810Z,25.97
2017-07-29T10:12:26.732Z,26.1
2017-07-29T10:13:36.681Z,26.07
2017-07-29T10:14:46.325Z,26.09
2017-07-29T10:15:56.242Z,25.98
2017-07-29T10:17:06.508Z,25.98
2017-07-29T10:18:15.818Z,26.01
2017-07-29T10:19:25.448Z,25.97
2017-07-29T10:20:35.695Z,26.01
2017-07-29T10:21:45.917Z,26.05
2017-07-29T10:22:56.146Z,26.05
2017-07-29T10:24:06.373Z,25.95
2017-07-29T10:25:16.000Z,25.99
2017-07-29T10:26:26.240Z,26.15
2017-07-29T10:27:36.476Z,26.09
2017-07-29T10:28:46.386Z,26.1
2017-07-29T10:29:55.681Z,26.1
2017-07-29T10:31:05.923Z,26.09
2017-07-29T10:32:15.542Z,26.13
2017-07-29T10:33:25.459Z,26.1
2017-07-29T10:34:35.163Z,26.12
2017-07-29T10:35:44.793Z,26.09
2017-07-29T10:36:54.404Z,26.07
2017-07-29T10:38:04.323Z,26.2
2017-07-29T10:39:14.558Z,26.21
2017-07-29T10:40:24.481Z,26.2
2017-07-29T10:41:33.815Z,26.13
2017-07-29T10:42:43.740Z,26.09
2017-07-29T10:43:53.991Z,26.13
2017-07-29T10:45:04.217Z,26.12
2017-07-29T10:46:14.148Z,26.1
2017-07-29T10:47:23.456Z,26.13
2017-07-29T10:48:33.064Z,26.18
2017-07-29T10:49:43.299Z,26.05
2017-07-29T10:50:53.228Z,26.13
2017-07-29T10:52:02.853Z,26.12
2017-07-29T10:53:12.764Z,26.1
2017-07-29T10:54:22.683Z,26.13
2017-07-29T10:55:32.610Z,26.1
2017-07-29T10:56:42.540Z,26.1
2017-07-29T10:57:52.158Z,26.12
2017-07-29T10:59:02.076Z,26.07
2017-07-29T11:00:11.397Z,26.09
2017-07-29T11:01:21.616Z,26.13
2017-07-29T11:02:31.842Z,26.12
2017-07-29T11:03:41.148Z,26.1
2017-07-29T11:04:50.786Z,26.1
2017-07-29T11:06:00.714Z,25.99
2017-07-29T11:07:10.320Z,25.98
2017-07-29T11:08:20.544Z,26.12
2017-07-29T11:09:30.473Z,26.01
2017-07-29T11:10:40.109Z,26.1
2017-07-29T11:11:49.111Z,26.07
2017-07-29T11:12:59.019Z,26.1
2017-07-29T11:14:08.631Z,26.06
2017-07-29T11:15:18.245Z,26.13
2017-07-29T11:16:28.157Z,26.12
2017-07-29T11:17:38.069Z,26.13
2017-07-29T11:18:47.700Z,26.1
2017-07-29T11:19:57.615Z,26.1
2017-07-29T11:21:06.613Z,26.1
2017-07-29T11:22:16.534Z,26.18
2017-07-29T11:23:26.152Z,26.15
2017-07-29T11:24:36.422Z,26.17
2017-07-29T11:25:45.458Z,26.12
2017-07-29T11:26:55.679Z,26.12
2017-07-29T11:28:05.592Z,26.09
2017-07-29T11:29:15.823Z,26.07
2017-07-29T11:30:25.782Z,26.06
2017-07-29T11:31:35.390Z,26.12
2017-07-29T11:32:45.304Z,26.12
2017-07-29T11:33:55.231Z,26.1
2017-07-29T11:35:05.169Z,26.13
2017-07-29T11:36:14.816Z,26.17
2017-07-29T11:37:24.452Z,26.1
2017-07-29T11:38:34.685Z,26.12
2017-07-29T11:39:44.318Z,26.05
2017-07-29T11:40:54.562Z,26.12
2017-07-29T11:42:04.873Z,26.13
2017-07-29T11:43:14.812Z,26.15
2017-07-29T11:44:24.441Z,26.02
2017-07-29T11:45:34.051Z,26.07
2017-07-29T11:46:43.680Z,26.01
2017-07-29T11:47:53.913Z,25.94
2017-07-29T11:49:04.151Z,25.91
2017-07-29T11:50:14.431Z,26.02
2017-07-29T11:51:24.665Z,25.94
2017-07-29T11:52:34.304Z,25.97
2017-07-29T11:53:44.250Z,25.94
2017-07-29T11:54:53.574Z,25.95
2017-07-29T11:56:03.218Z,26.05
2017-07-29T11:57:13.162Z,25.98
2017-07-29T11:58:22.777Z,25.99
2017-07-29T11:59:32.684Z,26.01
2017-07-29T12:00:42.609Z,25.97
2017-07-29T12:01:52.247Z,26.01
2017-07-29T12:03:02.506Z,25.98
2017-07-29T12:04:12.734Z,25.98
2017-07-29T12:05:22.338Z,25.97
2017-07-29T12:06:31.958Z,25.95
2017-07-29T12:07:41.581Z,26.05
2017-07-29T12:08:51.555Z,25.98
2017-07-29T12:10:01.773Z,26.07
2017-07-29T12:11:11.392Z,25.99
2017-07-29T12:12:21.614Z,25.98
2017-07-29T12:13:31.870Z,26.01
2017-07-29T12:14:42.113Z,26.01
2017-07-29T12:15:52.026Z,25.98
2017-07-29T12:17:01.636Z,26.02
2017-07-29T12:18:11.550Z,25.99
2017-07-29T12:19:21.152Z,26.02
2017-07-29T12:20:31.378Z,26.09
2017-07-29T12:21:41.596Z,26.13
2017-07-29T12:22:51.822Z,26.1
2017-07-29T12:24:02.037Z,26.1
2017-07-29T12:25:12.269Z,26.1
2017-07-29T12:26:21.891Z,26.13
2017-07-29T12:27:31.507Z,26.1
2017-07-29T12:28:41.740Z,26.07
2017-07-29T12:29:51.653Z,26.12
2017-07-29T12:31:01.574Z,26.12
2017-07-29T12:32:11.523Z,26.09
2017-07-29T12:33:21.434Z,26.09
2017-07-29T12:34:31.033Z,26.1
2017-07-29T12:35:40.632Z,26.2
2017-07-29T12:36:50.867Z,26.09
2017-07-29T12:38:01.106Z,26.13
2017-07-29T12:39:10.736Z,26.21
2017-07-29T12:40:21.349Z,26.23
2017-07-29T12:41:31.579Z,26.2
2017-07-29T12:42:41.483Z,26.21
2017-07-29T12:43:51.413Z,26.2
2017-07-29T12:45:01.647Z,26.2
2017-07-29T12:46:10.953Z,26.23
2017-07-29T12:47:21.816Z,26.25
2017-07-29T12:48:31.732Z,26.2
2017-07-29T12:49:41.346Z,26.2
2017-07-29T12:50:51.264Z,26.2
2017-07-29T12:52:00.874Z,26.21
2017-07-29T12:53:10.807Z,26.18
2017-07-29T12:54:20.710Z,26.26
2017-07-29T12:55:30.029Z,26.23
2017-07-29T12:56:40.008Z,26.2
2017-07-29T12:57:50.240Z,26.2
2017-07-29T12:59:00.501Z,26.23
2017-07-29T13:00:09.809Z,26.09
2017-07-29T13:01:19.426Z,26.15
2017-07-29T13:02:29.366Z,26.2
2017-07-29T13:03:39.599Z,26.23
2017-07-29T13:04:48.906Z,26.09
2017-07-29T13:05:58.833Z,26.18
2017-07-29T13:07:08.443Z,26.09
2017-07-29T13:08:18.651Z,26.29
2017-07-29T13:09:28.271Z,26.2
2017-07-29T13:10:38.495Z,26.17
2017-07-29T13:11:48.724Z,26.23
2017-07-29T13:12:58.342Z,26.25
2017-07-29T13:14:08.574Z,26.21
2017-07-29T13:15:18.499Z,26.26
2017-07-29T13:16:28.404Z,26.21
2017-07-29T13:17:38.711Z,26.23
2017-07-29T13:18:48.311Z,26.25
2017-07-29T13:19:58.541Z,26.25
2017-07-29T13:21:08.472Z,26.26
2017-07-29T13:22:17.465Z,26.21
2017-07-29T13:23:27.134Z,26.28
2017-07-29T13:24:37.368Z,26.21
2017-07-29T13:25:47.281Z,26.2
2017-07-29T13:26:57.514Z,26.1
2017-07-29T13:28:07.128Z,26.05
2017-07-29T13:29:16.744Z,26.12
2017-07-29T13:30:26.994Z,26.1
2017-07-29T13:31:36.930Z,26.17
2017-07-29T13:32:46.548Z,26.1
2017-07-29T13:33:56.461Z,26.17
2017-07-29T13:35:06.689Z,26.12
2017-07-29T13:36:16.601Z,26.12
2017-07-29T13:37:26.517Z,26.07
2017-07-29T13:38:36.436Z,26.09
2017-07-29T13:39:46.040Z,26.06
2017-07-29T13:40:55.657Z,26.07
2017-07-29T13:42:05.885Z,26.12
2017-07-29T13:43:15.205Z,26.13
2017-07-29T13:44:24.831Z,26.12
2017-07-29T13:45:34.760Z,26.1
2017-07-29T13:46:44.372Z,26.1
2017-07-29T13:47:54.606Z,26.18
2017-07-29T13:49:04.542Z,26.1
2017-07-29T13:50:14.459Z,26.09
2017-07-29T13:51:24.077Z,26.09
2017-07-29T13:52:34.298Z,26.1
2017-07-29T13:53:44.218Z,26.18
2017-07-29T13:54:54.129Z,26.2
2017-07-29T13:56:04.368Z,26.17
2017-07-29T13:57:13.989Z,26.07
2017-07-29T13:58:23.905Z,26.21
2017-07-29T13:59:33.534Z,26.09
2017-07-29T14:00:43.464Z,26.13
2017-07-29T14:01:53.385Z,26.07
2017-07-29T14:03:03.612Z,26.18
2017-07-29T14:04:13.536Z,26.17
2017-07-29T14:05:23.156Z,26.2
2017-07-29T14:06:33.080Z,26.21
2017-07-29T14:07:42.727Z,26.2
2017-07-29T14:08:52.657Z,26.21
2017-07-29T14:10:02.297Z,26.26
2017-07-29T14:11:12.245Z,26.25
2017-07-29T14:12:21.887Z,26.21
2017-07-29T14:13:32.121Z,26.3
2017-07-29T14:14:42.054Z,26.26
2017-07-29T14:15:51.688Z,26.26
2017-07-29T14:17:01.918Z,26.33
2017-07-29T14:18:11.843Z,26.32
2017-07-29T14:19:21.761Z,26.25
2017-07-29T14:20:31.694Z,26.32
2017-07-29T14:21:41.627Z,26.33
2017-07-29T14:22:51.552Z,26.32
2017-07-29T14:24:01.468Z,26.25
2017-07-29T14:25:11.411Z,26.29
2017-07-29T14:26:21.324Z,26.29
2017-07-29T14:27:31.563Z,26.3
2017-07-29T14:28:41.485Z,26.39
2017-07-29T14:29:51.390Z,26.33
2017-07-29T14:31:01.626Z,26.33
2017-07-29T14:32:11.851Z,26.33
2017-07-29T14:33:21.788Z,26.39
2017-07-29T14:34:31.711Z,26.39
2017-07-29T14:35:41.631Z,26.43
2017-07-29T14:36:51.846Z,26.45
2017-07-29T14:38:02.080Z,26.45
2017-07-29T14:39:12.010Z,26.4
2017-07-29T14:40:21.939Z,26.43
2017-07-29T14:41:31.548Z,26.47
2017-07-29T14:42:41.499Z,26.47
2017-07-29T14:43:51.429Z,26.48
2017-07-29T14:45:01.342Z,26.47
2017-07-29T14:46:11.569Z,26.45
2017-07-29T14:47:21.501Z,26.45
2017-07-29T14:48:31.411Z,26.48
2017-07-29T14:49:41.637Z,26.5
2017-07-29T14:50:51.571Z,26.5
2017-07-29T14:52:01.797Z,26.5
2017-07-29T14:53:11.409Z,26.51
2017-07-29T14:54:21.634Z,26.54
2017-07-29T14:55:31.854Z,26.55
2017-07-29T14:56:41.776Z,26.45
2017-07-29T14:57:51.386Z,26.45
2017-07-29T14:59:01.605Z,26.47
2017-07-29T15:00:11.598Z,26.47
2017-07-29T15:01:21.512Z,26.43
2017-07-29T15:02:31.441Z,26.39
2017-07-29T15:03:41.382Z,26.48
2017-07-29T15:04:51.608Z,26.37
2017-07-29T15:06:01.533Z,26.43
2017-07-29T15:07:11.780Z,26.47
2017-07-29T15:08:22.042Z,26.5
2017-07-29T15:09:31.984Z,26.45
2017-07-29T15:10:42.237Z,26.37
2017-07-29T15:11:52.161Z,26.44
2017-07-29T15:13:01.455Z,26.43
2017-07-29T15:14:11.368Z,26.45
2017-07-29T15:15:21.275Z,26.45
2017-07-29T15:16:31.190Z,26.44
2017-07-29T15:17:41.417Z,26.43
2017-07-29T15:18:51.030Z,26.36
2017-07-29T15:20:00.949Z,26.4
2017-07-29T15:21:11.178Z,26.43
2017-07-29T15:22:21.092Z,26.4
2017-07-29T15:23:31.004Z,26.43
2017-07-29T15:24:40.925Z,26.4
2017-07-29T15:25:50.545Z,26.39
2017-07-29T15:27:00.458Z,26.45
2017-07-29T15:28:10.680Z,26.37
2017-07-29T15:29:20.315Z,26.4
2017-07-29T15:30:29.922Z,26.4
2017-07-29T15:31:39.856Z,26.47
2017-07-29T15:32:50.086Z,26.43
2017-07-29T15:33:59.087Z,26.47